createdAt,value
2019-05-15T00:00:41.615Z,14.02
2019-05-15T00:03:09.878Z,14.66
2019-05-15T00:05:40.382Z,14.73
2019-05-15T00:08:09.489Z,14.14
2019-05-15T00:10:38.971Z,13.91
2019-05-15T00:13:09.207Z,13.84
2019-05-15T00:15:40.158Z,13.45
2019-05-15T00:18:08.874Z,13.17
2019-05-15T00:20:39.438Z,13.42
2019-05-15T00:23:08.520Z,13.13
2019-05-15T00:25:39.245Z,13.42
2019-05-15T00:28:09.391Z,14.25
2019-05-15T00:30:38.763Z,14.54
2019-05-15T00:33:08.921Z,13.98
2019-05-15T00:35:39.382Z,13.96
2019-05-15T00:38:09.311Z,14.20
2019-05-15T00:40:39.224Z,14.17
2019-05-15T00:43:08.834Z,13.89
2019-05-15T00:45:38.563Z,14.05
2019-05-15T00:48:08.893Z,14.45
2019-05-15T00:50:39.409Z,14.59
2019-05-15T00:53:08.636Z,14.81
2019-05-15T00:55:39.572Z,14.54
2019-05-15T00:58:08.788Z,13.88
2019-05-15T01:00:44.933Z,14.40
2019-05-15T01:03:13.521Z,14.11
2019-05-15T01:05:42.888Z,14.02
2019-05-15T01:08:11.326Z,14.04
2019-05-15T01:10:39.678Z,14.06
2019-05-15T01:13:08.651Z,13.58
2019-05-15T01:15:38.760Z,13.41
2019-05-15T01:18:09.463Z,13.86
2019-05-15T01:20:39.066Z,13.73
2019-05-15T01:23:08.853Z,13.56
2019-05-15T01:25:38.904Z,13.73
2019-05-15T01:28:09.444Z,14.27
2019-05-15T01:30:39.342Z,13.91
2019-05-15T01:33:08.424Z,13.73
2019-05-15T01:35:38.337Z,13.18
2019-05-15T01:38:08.091Z,13.20
2019-05-15T01:40:38.517Z,13.38
2019-05-15T01:43:09.074Z,13.05
2019-05-15T01:45:39.057Z,13.43
2019-05-15T01:48:08.116Z,14.01
2019-05-15T01:50:38.702Z,13.24
2019-05-15T01:53:08.290Z,12.65
2019-05-15T01:55:39.344Z,13.99
2019-05-15T01:58:09.232Z,12.64
2019-05-15T02:00:39.173Z,12.98
2019-05-15T02:03:09.425Z,13.93
2019-05-15T02:05:38.993Z,13.02
2019-05-15T02:08:08.217Z,12.67
2019-05-15T02:10:39.201Z,13.40
2019-05-15T02:13:08.600Z,13.44
2019-05-15T02:15:39.166Z,13.79
2019-05-15T02:18:08.400Z,14.00
2019-05-15T02:20:38.976Z,12.90
2019-05-15T02:23:11.442Z,12.26
2019-05-15T02:25:38.806Z,12.96
2019-05-15T02:28:09.106Z,12.45
2019-05-15T02:30:40.461Z,12.98
2019-05-15T02:33:10.589Z,13.94
2019-05-15T02:35:39.175Z,12.31
2019-05-15T02:38:10.087Z,12.08
2019-05-15T02:40:40.070Z,11.91
2019-05-15T02:43:10.105Z,11.95
2019-05-15T02:45:41.708Z,13.42
2019-05-15T02:48:08.874Z,11.65
2019-05-15T02:50:39.233Z,12.02
2019-05-15T02:53:09.858Z,12.27
2019-05-15T02:55:39.836Z,12.19
2019-05-15T02:58:10.102Z,11.97
2019-05-15T03:00:46.949Z,12.01
2019-05-15T03:03:09.464Z,11.58
2019-05-15T03:05:40.674Z,11.79
2019-05-15T03:08:09.610Z,12.08
2019-05-15T03:10:40.657Z,11.72
2019-05-15T03:13:09.735Z,11.32
2019-05-15T03:15:40.117Z,11.78
2019-05-15T03:18:09.542Z,11.29
2019-05-15T03:20:39.100Z,11.34
2019-05-15T03:23:09.753Z,11.44
2019-05-15T03:25:40.231Z,11.50
2019-05-15T03:28:10.478Z,11.57
2019-05-15T03:31:06.794Z,11.61
2019-05-15T03:33:17.116Z,11.57
2019-05-15T03:35:43.096Z,11.34
2019-05-15T03:38:09.289Z,11.10
2019-05-15T03:40:39.623Z,11.02
2019-05-15T03:43:09.066Z,11.36
2019-05-15T03:45:40.506Z,11.06
2019-05-15T03:48:09.770Z,11.34
2019-05-15T03:50:40.291Z,12.46
2019-05-15T03:53:10.283Z,11.33
2019-05-15T03:55:40.538Z,11.26
2019-05-15T03:58:10.042Z,11.46
2019-05-15T04:00:39.624Z,11.55
2019-05-15T04:03:10.908Z,11.18
2019-05-15T04:05:39.057Z,10.83
2019-05-15T04:08:10.847Z,11.25
2019-05-15T04:10:39.831Z,11.27
2019-05-15T04:13:09.399Z,11.36
2019-05-15T04:15:39.571Z,11.43
2019-05-15T04:18:09.262Z,11.08
2019-05-15T04:20:40.361Z,11.36
2019-05-15T04:23:10.275Z,11.41
2019-05-15T04:25:39.162Z,11.07
2019-05-15T04:28:09.920Z,11.10
2019-05-15T04:30:39.544Z,11.10
2019-05-15T04:33:09.587Z,11.02
2019-05-15T04:35:40.003Z,11.43
2019-05-15T04:38:09.373Z,11.36
2019-05-15T04:40:39.767Z,11.16
2019-05-15T04:43:10.397Z,11.07
2019-05-15T04:45:39.359Z,12.03
2019-05-15T04:48:10.085Z,11.91
2019-05-15T04:50:39.900Z,11.43
2019-05-15T04:53:10.634Z,10.02
2019-05-15T04:55:40.246Z,10.58
2019-05-15T04:58:10.026Z,11.19
2019-05-15T05:00:52.291Z,11.41
2019-05-15T05:03:21.032Z,11.50
2019-05-15T05:06:10.450Z,11.59
2019-05-15T05:08:39.691Z,11.21
2019-05-15T05:11:09.726Z,11.71
2019-05-15T05:13:39.138Z,11.59
2019-05-15T05:16:09.493Z,11.88
2019-05-15T05:18:41.460Z,11.77
2019-05-15T05:21:07.971Z,11.66
2019-05-15T05:23:37.728Z,11.65
2019-05-15T05:26:08.873Z,12.43
2019-05-15T05:28:37.954Z,12.72
2019-05-15T05:31:08.366Z,11.86
2019-05-15T05:33:38.167Z,12.03
2019-05-15T05:36:07.942Z,12.33
2019-05-15T05:38:38.784Z,12.14
2019-05-15T05:41:08.150Z,12.26
2019-05-15T05:43:38.306Z,12.19
2019-05-15T05:46:09.124Z,12.28
2019-05-15T05:48:38.299Z,12.33
2019-05-15T05:51:09.245Z,12.44
2019-05-15T05:53:38.855Z,12.25
2019-05-15T05:56:08.978Z,12.26
2019-05-15T05:58:39.052Z,12.35
2019-05-15T06:01:09.345Z,12.14
2019-05-15T06:03:38.587Z,12.40
2019-05-15T06:06:09.687Z,12.51
2019-05-15T06:08:38.914Z,12.50
2019-05-15T06:11:09.681Z,12.69
2019-05-15T06:13:38.276Z,12.24
2019-05-15T06:16:09.201Z,12.68
2019-05-15T06:18:38.705Z,12.79
2019-05-15T06:21:09.056Z,12.57
2019-05-15T06:23:44.207Z,12.88
2019-05-15T06:26:09.576Z,12.99
2019-05-15T06:28:39.355Z,12.98
2019-05-15T06:31:08.748Z,12.59
2019-05-15T06:33:38.462Z,12.88
2019-05-15T06:36:08.948Z,12.70
2019-05-15T06:38:39.225Z,12.99
2019-05-15T06:41:08.718Z,12.54
2019-05-15T06:43:38.891Z,12.86
2019-05-15T06:46:09.229Z,13.06
2019-05-15T06:48:38.076Z,13.06
2019-05-15T06:51:08.627Z,14.62
2019-05-15T06:53:38.446Z,13.51
2019-05-15T06:56:07.963Z,13.18
2019-05-15T06:58:38.428Z,13.42
2019-05-15T07:01:08.746Z,13.26
2019-05-15T07:03:39.117Z,13.70
2019-05-15T07:06:09.372Z,13.69
2019-05-15T07:08:38.423Z,13.89
2019-05-15T07:11:08.833Z,13.18
2019-05-15T07:13:38.322Z,13.31
2019-05-15T07:16:08.119Z,13.72
2019-05-15T07:21:42.994Z,13.62
2019-05-15T07:27:11.684Z,13.84
2019-05-15T07:29:39.958Z,14.62
2019-05-15T07:32:08.243Z,13.62
2019-05-15T07:34:37.946Z,13.67
2019-05-15T07:37:09.482Z,13.86
2019-05-15T07:39:38.210Z,13.83
2019-05-15T07:42:08.620Z,13.88
2019-05-15T07:44:38.800Z,14.11
2019-05-15T07:47:08.806Z,14.74
2019-05-15T07:49:38.795Z,14.02
2019-05-15T07:52:08.634Z,14.24
2019-05-15T07:54:38.313Z,14.37
2019-05-15T07:57:08.786Z,14.09
2019-05-15T07:59:38.662Z,14.10
2019-05-15T08:02:08.401Z,14.29
2019-05-15T08:04:38.098Z,14.70
2019-05-15T08:07:08.972Z,14.60
2019-05-15T08:09:38.911Z,14.48
2019-05-15T08:12:08.273Z,14.55
2019-05-15T08:14:38.774Z,14.70
2019-05-15T08:17:08.643Z,14.87
2019-05-15T08:19:38.368Z,14.96
2019-05-15T08:22:08.941Z,14.69
2019-05-15T08:24:39.036Z,14.91
2019-05-15T08:27:08.299Z,14.92
2019-05-15T08:29:38.331Z,14.97
2019-05-15T08:32:08.432Z,15.23
2019-05-15T08:34:38.647Z,15.26
2019-05-15T08:37:07.948Z,14.92
2019-05-15T08:39:38.170Z,15.38
2019-05-15T08:42:08.045Z,15.53
2019-05-15T08:44:38.661Z,15.42
2019-05-15T08:47:08.206Z,15.17
2019-05-15T08:49:40.976Z,15.21
2019-05-15T08:52:09.555Z,15.65
2019-05-15T08:54:38.359Z,15.38
2019-05-15T08:57:08.536Z,15.37
2019-05-15T08:59:38.159Z,15.54
2019-05-15T09:02:07.893Z,15.65
2019-05-15T09:04:38.668Z,15.73
2019-05-15T09:07:08.977Z,15.64
2019-05-15T09:09:38.361Z,15.74
2019-05-15T09:12:08.256Z,15.70
2019-05-15T09:14:38.076Z,15.84
2019-05-15T09:17:08.693Z,16.21
2019-05-15T09:19:38.621Z,15.80
2019-05-15T09:22:08.909Z,15.96
2019-05-15T09:24:37.917Z,15.97
2019-05-15T09:27:10.028Z,16.07
2019-05-15T09:29:38.103Z,16.20
2019-05-15T09:32:08.590Z,15.94
2019-05-15T09:34:47.803Z,16.26
2019-05-15T09:37:08.585Z,16.40
2019-05-15T09:39:38.132Z,16.42
2019-05-15T09:42:08.406Z,17.70
2019-05-15T09:44:36.495Z,17.88
2019-05-15T09:47:05.308Z,17.56
2019-05-15T09:49:33.591Z,17.92
2019-05-15T09:52:01.870Z,16.90
2019-05-15T09:54:30.147Z,17.25
2019-05-15T09:56:58.687Z,18.02
2019-05-15T09:59:28.151Z,17.91
2019-05-15T10:01:58.842Z,18.11
2019-05-15T10:04:28.709Z,17.56
2019-05-15T10:06:57.068Z,16.41
2019-05-15T10:09:25.344Z,16.54
2019-05-15T10:11:53.791Z,16.73
2019-05-15T10:14:22.118Z,17.15
2019-05-15T10:16:50.659Z,17.06
2019-05-15T10:19:18.929Z,17.15
2019-05-15T10:21:52.967Z,16.56
2019-05-15T10:24:18.381Z,17.48
2019-05-15T10:26:48.898Z,17.03
2019-05-15T10:29:16.685Z,17.83
2019-05-15T10:31:44.960Z,18.11
2019-05-15T10:34:14.243Z,17.42
2019-05-15T10:36:42.538Z,17.63
2019-05-15T10:39:10.850Z,18.18
2019-05-15T10:41:39.468Z,17.66
2019-05-15T10:44:09.182Z,17.98
2019-05-15T10:46:38.312Z,18.04
2019-05-15T10:49:08.667Z,18.33
2019-05-15T10:51:39.285Z,18.48
2019-05-15T10:54:08.590Z,17.98
2019-05-15T10:56:38.604Z,18.64
2019-05-15T10:59:08.505Z,18.21
2019-05-15T11:01:38.648Z,18.27
2019-05-15T11:04:09.269Z,18.23
2019-05-15T11:06:38.350Z,18.07
2019-05-15T11:09:08.524Z,18.21
2019-05-15T11:11:37.868Z,17.93
2019-05-15T11:14:08.866Z,18.44
2019-05-15T11:16:38.877Z,18.65
2019-05-15T11:19:08.023Z,17.92
2019-05-15T11:21:36.392Z,18.70
2019-05-15T11:24:04.897Z,19.68
2019-05-15T11:26:35.128Z,20.31
2019-05-15T11:29:04.478Z,20.65
2019-05-15T11:31:32.751Z,21.53
2019-05-15T11:34:01.013Z,20.69
2019-05-15T11:36:29.264Z,21.62
2019-05-15T11:38:57.547Z,21.98
2019-05-15T11:41:25.816Z,22.51
2019-05-15T11:43:54.061Z,23.12
2019-05-15T11:46:30.640Z,24.26
2019-05-15T11:49:09.194Z,24.43
2019-05-15T11:51:38.391Z,24.75
2019-05-15T11:54:08.237Z,25.36
2019-05-15T11:56:39.085Z,25.39
2019-05-15T11:59:08.518Z,25.82
2019-05-15T12:01:38.323Z,26.14
2019-05-15T12:04:09.184Z,26.31
2019-05-15T12:06:38.566Z,26.91
2019-05-15T12:09:09.090Z,28.05
2019-05-15T12:11:40.819Z,27.29
2019-05-15T12:14:08.471Z,27.99
2019-05-15T12:16:39.823Z,28.34
2019-05-15T12:19:16.623Z,27.27
2019-05-15T12:21:39.346Z,28.08
2019-05-15T12:24:08.936Z,28.59
2019-05-15T12:26:39.392Z,30.19
2019-05-15T12:29:09.884Z,31.29
2019-05-15T12:31:38.878Z,28.31
2019-05-15T12:34:09.092Z,30.14
2019-05-15T12:39:10.633Z,31.14
2019-05-15T13:01:38.874Z,30.64
2019-05-15T13:04:08.247Z,32.87
2019-05-15T13:06:47.856Z,32.52
2019-05-15T13:09:08.698Z,31.93
2019-05-15T13:11:38.142Z,27.53
2019-05-15T13:14:08.108Z,28.19
2019-05-15T13:16:38.908Z,31.95
2019-05-15T13:19:06.538Z,33.20
2019-05-15T13:21:34.945Z,33.43
2019-05-15T13:24:03.198Z,32.72
2019-05-15T13:26:31.485Z,34.73
2019-05-15T13:28:59.763Z,30.15
2019-05-15T13:31:28.564Z,30.15
2019-05-15T13:33:58.788Z,28.99
2019-05-15T13:36:28.807Z,32.01
2019-05-15T13:38:57.908Z,33.08
2019-05-15T13:41:28.266Z,34.79
2019-05-15T13:43:58.378Z,34.87
2019-05-15T13:46:28.780Z,36.68
2019-05-15T13:48:56.410Z,36.17
2019-05-15T13:51:24.697Z,33.98
2019-05-15T13:53:53.707Z,29.96
2019-05-15T13:56:22.160Z,28.76
2019-05-15T13:58:51.198Z,27.34
2019-05-15T14:01:20.544Z,27.16
2019-05-15T14:03:48.792Z,29.97
2019-05-15T14:06:19.175Z,32.72
2019-05-15T14:08:48.761Z,33.60
2019-05-15T14:11:21.154Z,35.46
2019-05-15T14:13:48.626Z,35.16
2019-05-15T14:16:19.301Z,35.49
2019-05-15T14:18:48.464Z,34.69
2019-05-15T14:21:18.394Z,34.96
2019-05-15T14:23:47.833Z,35.79
2019-05-15T14:26:22.403Z,35.47
2019-05-15T14:28:48.128Z,34.91
2019-05-15T14:31:18.307Z,34.71
2019-05-15T14:33:48.705Z,34.00
2019-05-15T14:36:18.501Z,34.83
2019-05-15T14:38:48.483Z,36.56
2019-05-15T14:41:18.980Z,34.79
2019-05-15T14:43:48.420Z,36.62
2019-05-15T14:46:18.532Z,33.09
2019-05-15T14:48:49.075Z,34.51
2019-05-15T14:51:19.221Z,33.02
2019-05-15T14:53:49.029Z,36.45
2019-05-15T14:56:18.509Z,35.82
2019-05-15T14:58:47.999Z,34.65
2019-05-15T15:01:18.478Z,35.40
2019-05-15T15:03:48.611Z,34.05
2019-05-15T15:06:18.194Z,34.31
2019-05-15T15:08:48.684Z,34.21
2019-05-15T15:11:17.943Z,33.63
2019-05-15T15:13:46.401Z,34.18
2019-05-15T15:16:14.670Z,33.89
2019-05-15T15:18:42.991Z,35.41
2019-05-15T15:21:11.237Z,35.47
2019-05-15T15:23:39.507Z,35.34
2019-05-15T15:26:08.384Z,34.63
2019-05-15T15:28:36.663Z,35.45
2019-05-15T15:31:04.949Z,35.45
2019-05-15T15:33:33.416Z,31.70
2019-05-15T15:36:01.693Z,31.62
2019-05-15T15:38:40.174Z,33.83
2019-05-15T15:41:00.635Z,36.10
2019-05-15T15:43:28.989Z,35.27
2019-05-15T15:45:58.051Z,34.90
2019-05-15T15:48:28.494Z,34.63
2019-05-15T15:50:58.674Z,36.78
2019-05-15T15:53:28.657Z,36.50
2019-05-15T15:55:56.701Z,36.81
2019-05-15T15:58:25.062Z,34.47
2019-05-15T16:00:54.289Z,35.35
2019-05-15T16:03:22.597Z,36.67
2019-05-15T16:05:50.843Z,34.42
2019-05-15T16:08:19.205Z,31.85
2019-05-15T16:10:48.353Z,30.48
2019-05-15T16:13:18.681Z,29.26
2019-05-15T16:15:48.785Z,27.94
2019-05-15T16:18:18.356Z,28.05
2019-05-15T16:20:48.593Z,27.17
2019-05-15T16:23:18.876Z,27.37
2019-05-15T16:25:48.982Z,27.45
2019-05-15T16:28:18.514Z,26.22
2019-05-15T16:30:51.371Z,26.35
2019-05-15T16:33:18.424Z,26.17
2019-05-15T16:35:48.780Z,25.61
2019-05-15T16:38:19.280Z,24.34
2019-05-15T16:40:48.957Z,24.89
2019-05-15T16:43:17.894Z,24.51
2019-05-15T16:45:49.463Z,24.11
2019-05-15T16:48:18.588Z,23.48
2019-05-15T16:50:48.772Z,24.27
2019-05-15T16:53:18.265Z,24.56
2019-05-15T16:55:48.064Z,23.92
2019-05-15T16:58:19.131Z,23.31
2019-05-15T17:00:49.680Z,23.44
2019-05-15T17:03:18.417Z,23.06
2019-05-15T17:05:48.024Z,22.77
2019-05-15T17:08:17.915Z,23.11
2019-05-15T17:10:48.287Z,22.44
2019-05-15T17:13:16.982Z,22.59
2019-05-15T17:15:47.675Z,22.50
2019-05-15T17:18:15.301Z,22.17
2019-05-15T17:20:43.802Z,22.50
2019-05-15T17:23:12.093Z,21.96
2019-05-15T17:25:40.406Z,22.06
2019-05-15T17:28:09.225Z,22.11
2019-05-15T17:30:38.229Z,22.19
2019-05-15T17:33:06.668Z,21.92
2019-05-15T17:35:35.010Z,21.46
2019-05-15T17:38:04.371Z,21.53
2019-05-15T17:40:32.727Z,21.77
2019-05-15T17:43:02.613Z,21.45
2019-05-15T17:45:31.103Z,21.93
2019-05-15T17:47:59.447Z,21.36
2019-05-15T17:50:28.344Z,21.16
2019-05-15T17:52:58.680Z,21.32
2019-05-15T17:55:27.821Z,20.86
2019-05-15T17:57:58.343Z,19.98
2019-05-15T18:00:28.558Z,19.59
2019-05-15T18:02:57.564Z,20.49
2019-05-15T18:05:28.078Z,19.98
2019-05-15T18:07:58.388Z,19.15
2019-05-15T18:10:28.088Z,19.07
2019-05-15T18:12:58.395Z,19.40
2019-05-15T18:15:26.891Z,19.28
2019-05-15T18:17:55.395Z,19.17
2019-05-15T18:20:29.942Z,19.05
2019-05-15T18:22:59.472Z,19.53
2019-05-15T18:25:28.042Z,18.87
2019-05-15T18:27:58.858Z,19.50
2019-05-15T18:30:28.242Z,19.45
2019-05-15T18:32:58.738Z,19.25
2019-05-15T18:35:26.564Z,19.53
2019-05-15T18:37:58.892Z,18.97
2019-05-15T18:40:27.788Z,19.21
2019-05-15T18:42:58.941Z,18.91
2019-05-15T18:45:26.263Z,18.55
2019-05-15T18:47:58.479Z,18.61
2019-05-15T18:50:28.331Z,18.46
2019-05-15T18:52:58.451Z,18.33
2019-05-15T18:55:26.400Z,18.61
2019-05-15T18:57:54.686Z,19.03
2019-05-15T19:00:23.010Z,18.32
2019-05-15T19:02:53.268Z,18.51
2019-05-15T19:05:21.544Z,18.74
2019-05-15T19:07:49.817Z,18.50
2019-05-15T19:10:19.692Z,18.46
2019-05-15T19:12:48.509Z,18.47
2019-05-15T19:15:17.856Z,18.34
2019-05-15T19:17:47.853Z,18.40
2019-05-15T19:20:18.803Z,18.12
2019-05-15T19:22:48.229Z,17.96
2019-05-15T19:25:17.940Z,18.79
2019-05-15T19:27:46.312Z,18.79
2019-05-15T19:30:15.115Z,19.09
2019-05-15T19:32:43.462Z,19.27
2019-05-15T19:35:11.851Z,19.06
2019-05-15T19:37:40.437Z,18.82
2019-05-15T19:40:09.771Z,18.70
2019-05-15T19:42:38.630Z,18.60
2019-05-15T19:45:08.687Z,18.45
2019-05-15T19:47:38.862Z,18.70
2019-05-15T19:50:08.935Z,18.79
2019-05-15T19:52:38.427Z,18.80
2019-05-15T19:55:08.891Z,18.63
2019-05-15T19:57:39.020Z,18.71
2019-05-15T20:00:08.814Z,18.73
2019-05-15T20:02:38.103Z,18.16
2019-05-15T20:05:09.272Z,18.39
2019-05-15T20:07:39.399Z,18.20
2019-05-15T20:10:09.863Z,18.33
2019-05-15T20:12:38.914Z,18.18
2019-05-15T20:15:09.145Z,18.17
2019-05-15T20:17:38.616Z,18.23
2019-05-15T20:20:08.711Z,18.18
2019-05-15T20:22:39.639Z,17.69
2019-05-15T20:25:08.241Z,18.11
2019-05-15T20:27:39.133Z,17.74
2019-05-15T20:30:08.679Z,17.71
2019-05-15T20:32:38.607Z,17.33
2019-05-15T20:35:08.664Z,17.36
2019-05-15T20:37:39.039Z,17.59
2019-05-15T20:40:09.161Z,17.54
2019-05-15T20:42:38.303Z,17.47
2019-05-15T20:45:12.069Z,16.85
2019-05-15T20:47:39.140Z,17.37
2019-05-15T20:50:09.005Z,17.43
2019-05-15T20:52:39.405Z,17.65
2019-05-15T20:55:08.658Z,17.69
2019-05-15T20:57:40.117Z,17.27
2019-05-15T21:00:09.273Z,17.09
2019-05-15T21:02:38.105Z,17.43
2019-05-15T21:05:08.770Z,17.32
2019-05-15T21:07:42.034Z,17.15
2019-05-15T21:10:08.532Z,17.03
2019-05-15T21:12:40.521Z,16.58
2019-05-15T21:15:08.596Z,17.25
2019-05-15T21:17:40.049Z,17.77
2019-05-15T21:20:09.336Z,17.24
2019-05-15T21:22:40.369Z,17.56
2019-05-15T21:25:10.857Z,17.46
2019-05-15T21:27:42.851Z,17.44
2019-05-15T21:30:11.653Z,17.28
2019-05-15T21:32:40.041Z,17.57
2019-05-15T21:35:09.289Z,17.27
2019-05-15T21:37:38.814Z,17.35
2019-05-15T21:40:08.522Z,17.75
2019-05-15T21:42:39.150Z,17.49
2019-05-15T21:45:13.710Z,17.13
2019-05-15T21:47:38.735Z,17.29
2019-05-15T21:50:09.766Z,17.46
2019-05-15T21:52:39.482Z,17.00
2019-05-15T21:55:09.516Z,16.98
2019-05-15T21:57:40.343Z,16.89
2019-05-15T22:00:31.961Z,17.18
2019-05-15T22:03:00.375Z,17.04
2019-05-15T22:05:29.230Z,16.62
2019-05-15T22:07:58.802Z,16.84
2019-05-15T22:10:28.749Z,17.09
2019-05-15T22:12:58.930Z,16.93
2019-05-15T22:15:29.442Z,16.95
2019-05-15T22:17:57.988Z,17.15
2019-05-15T22:20:30.082Z,16.75
2019-05-15T22:22:59.275Z,17.08
2019-05-15T22:25:28.021Z,17.38
2019-05-15T22:27:57.876Z,17.34
2019-05-15T22:30:29.931Z,17.17
2019-05-15T22:32:58.808Z,16.94
2019-05-15T22:35:29.093Z,17.04
2019-05-15T22:37:58.444Z,16.72
2019-05-15T22:40:28.670Z,16.64
2019-05-15T22:42:58.859Z,16.51
2019-05-15T22:45:28.589Z,16.65
2019-05-15T22:47:58.680Z,16.68
2019-05-15T22:50:28.135Z,16.37
2019-05-15T22:52:59.815Z,16.29
2019-05-15T22:55:28.920Z,16.70
2019-05-15T22:57:58.670Z,16.56
2019-05-15T23:00:28.986Z,16.62
2019-05-15T23:02:58.483Z,16.51
2019-05-15T23:05:29.298Z,16.46
2019-05-15T23:07:58.936Z,16.71
2019-05-15T23:10:29.256Z,16.48
2019-05-15T23:12:58.138Z,16.90
2019-05-15T23:15:28.123Z,16.58
2019-05-15T23:17:58.203Z,16.40
2019-05-15T23:20:28.575Z,16.37
2019-05-15T23:22:58.502Z,16.58
2019-05-15T23:25:28.959Z,16.66
2019-05-15T23:27:58.108Z,16.51
2019-05-15T23:30:28.747Z,16.66
2019-05-15T23:32:58.286Z,15.97
2019-05-15T23:35:35.524Z,16.18
2019-05-15T23:37:58.086Z,16.22
2019-05-15T23:40:28.797Z,15.99
2019-05-15T23:42:56.715Z,16.22
2019-05-15T23:45:24.967Z,16.29
2019-05-15T23:47:53.261Z,16.52
2019-05-15T23:50:22.564Z,16.37
2019-05-15T23:52:50.836Z,16.32
2019-05-15T23:55:19.197Z,16.03
2019-05-15T23:57:48.446Z,15.53
